Time;durP1;ratioP1;P1;durP2;ratioP2;P2;SDS_P1;SDS_P2;PMS_P1;PMS_P2;Temp;Humidity;BMP_temperature;BMP_pressure;BME280_temperature;BME280_humidity;BME280_pressure;Samples;Min_cycle;Max_cycle;Signal;HPM_P1;HPM_P2
2021/05/06 00:30:34;;;;;;;3.80;2.23;;;;;;;5.59;69.42;98275.55;124839;1101;64303;-81
2021/05/06 00:33:02;;;;;;;4.00;2.20;;;;;;;5.58;69.25;98277.35;124811;1101;64540;-81
2021/05/06 00:35:32;;;;;;;2.70;1.90;;;;;;;5.58;69.54;98281.76;124853;1097;64364;-80
2021/05/06 00:41:16;;;;;;;5.07;2.30;;;;;;;5.55;69.31;98293.36;124786;1101;64345;-80
2021/05/06 01:09:45;;;;;;;4.27;2.20;;;;;;;5.28;69.52;98309.01;124869;1101;64339;-81
2021/05/06 01:12:12;;;;;;;5.23;2.07;;;;;;;5.22;69.45;98302.28;124840;1096;64336;-79
2021/05/06 01:14:38;;;;;;;3.13;1.90;;;;;;;5.19;69.70;98304.27;124835;1101;64460;-79
2021/05/06 01:17:05;;;;;;;3.55;2.00;;;;;;;5.16;69.71;98300.00;124790;1101;64249;-84
2021/05/06 01:19:32;;;;;;;2.35;2.10;;;;;;;5.13;69.81;98292.22;125135;1095;64323;-80
2021/05/06 01:21:58;;;;;;;3.47;3.10;;;;;;;5.09;69.68;98297.78;125140;1096;64329;-81
2021/05/06 01:24:26;;;;;;;5.97;3.30;;;;;;;5.10;69.82;98307.40;124876;1097;64323;-82
2021/05/06 01:32:42;;;;;;;3.25;2.10;;;;;;;5.00;70.04;98305.28;124651;1096;64459;-81
2021/05/06 01:35:15;;;;;;;2.60;1.50;;;;;;;4.99;69.83;98300.08;124780;1101;64317;-81
2021/05/06 01:40:30;;;;;;;3.13;2.30;;;;;;;4.94;69.89;98297.68;124765;1096;64333;-81
2021/05/06 01:43:31;;;;;;;3.50;2.53;;;;;;;4.90;70.00;98301.45;124805;1101;64342;-80
2021/05/06 01:46:02;;;;;;;3.17;2.07;;;;;;;4.84;70.04;98305.28;124891;1101;64416;-81
2021/05/06 01:57:30;;;;;;;3.53;2.00;;;;;;;4.76;70.40;98301.33;124850;1101;64358;-80
2021/05/06 01:59:53;;;;;;;6.13;4.53;;;;;;;4.67;70.26;98299.20;124910;1101;64358;-82
2021/05/06 02:02:20;;;;;;;5.10;3.70;;;;;;;4.67;70.52;98301.84;124896;1101;64275;-81
2021/05/06 02:04:47;;;;;;;4.27;2.27;;;;;;;4.60;70.39;98296.88;124863;1101;64438;-82
2021/05/06 02:07:14;;;;;;;2.40;1.47;;;;;;;4.57;70.31;98296.20;124910;1101;64504;-81
2021/05/06 02:09:40;;;;;;;2.20;2.00;;;;;;;4.54;70.44;98293.73;124866;1097;64336;-81
2021/05/06 02:12:10;;;;;;;3.53;1.90;;;;;;;4.47;70.58;98301.11;124788;1101;64358;-81
2021/05/06 02:14:37;;;;;;;3.00;1.85;;;;;;;4.45;70.57;98291.57;124787;1101;64425;-81
2021/05/06 02:17:03;;;;;;;2.50;1.70;;;;;;;4.44;70.59;98298.64;124728;1101;64352;-81
2021/05/06 02:19:34;;;;;;;2.70;1.60;;;;;;;4.43;70.42;98293.47;124804;1096;64313;-80
2021/05/06 02:22:04;;;;;;;2.43;1.63;;;;;;;4.39;70.51;98293.59;124839;1096;64457;-80
2021/05/06 02:24:34;;;;;;;2.65;1.80;;;;;;;4.38;70.62;98304.25;124843;1101;64378;-80
2021/05/06 02:27:01;;;;;;;2.63;1.93;;;;;;;4.35;70.59;98305.27;124859;1096;64310;-80
2021/05/06 02:29:28;;;;;;;3.77;1.60;;;;;;;4.33;70.91;98304.48;124863;1096;64756;-79
2021/05/06 02:31:54;;;;;;;2.20;1.60;;;;;;;4.31;70.87;98310.77;124816;1101;64327;-82
2021/05/06 02:34:21;;;;;;;3.30;1.90;;;;;;;4.26;70.81;98312.80;124749;1101;64323;-80
2021/05/06 02:36:48;;;;;;;2.57;1.73;;;;;;;4.25;70.88;98317.23;124815;1096;64253;-79
2021/05/06 02:39:15;;;;;;;3.77;2.43;;;;;;;4.24;70.89;98319.93;124790;1096;64281;-80
2021/05/06 02:41:42;;;;;;;4.33;4.03;;;;;;;4.23;70.92;98320.88;124791;1101;64467;-80
2021/05/06 02:44:09;;;;;;;4.40;3.87;;;;;;;4.20;71.28;98315.77;124772;1101;64339;-80
2021/05/06 02:46:36;;;;;;;3.00;2.10;;;;;;;4.18;71.09;98329.02;124730;1101;64333;-81
2021/05/06 02:49:03;;;;;;;2.40;1.80;;;;;;;4.13;71.32;98318.73;124825;1096;64323;-81
2021/05/06 02:51:34;;;;;;;2.20;1.75;;;;;;;4.11;71.49;98320.59;124833;1101;64252;-81
2021/05/06 02:54:02;;;;;;;3.30;1.83;;;;;;;4.10;71.54;98325.92;124809;1097;64379;-82
2021/05/06 03:04:16;;;;;;;2.83;1.93;;;;;;;4.07;71.63;98329.57;124848;1101;64358;-80
2021/05/06 03:06:53;;;;;;;2.53;2.07;;;;;;;4.07;71.70;98334.84;124813;1097;64402;-81
2021/05/06 03:22:56;;;;;;;4.63;2.60;;;;;;;4.05;71.61;98356.95;124846;1095;64339;-80
2021/05/06 03:25:24;;;;;;;6.67;2.80;;;;;;;4.05;71.58;98356.95;124817;1096;64331;-80
2021/05/06 04:27:19;;;;;;;3.53;2.80;;;;;;;13.31;51.25;98413.75;124837;1101;64355;-80
2021/05/06 04:37:46;;;;;;;4.53;3.00;;;;;;;13.22;50.21;98426.09;124834;1097;64793;-81
2021/05/06 05:05:07;;;;;;;2.70;1.90;;;;;;;13.98;47.12;98463.16;124764;1101;64352;-79
2021/05/06 05:07:38;;;;;;;2.20;1.60;;;;;;;14.10;46.61;98456.70;124724;1097;64422;-80
2021/05/06 05:25:49;;;;;;;3.03;1.60;;;;;;;14.14;45.17;98462.63;124756;1097;64338;-80
2021/05/06 05:28:16;;;;;;;1.83;1.40;;;;;;;14.18;45.75;98456.02;124763;1101;64332;-80
2021/05/06 05:30:43;;;;;;;1.57;1.47;;;;;;;14.22;45.61;98462.81;124785;1101;64808;-80
2021/05/06 05:33:12;;;;;;;3.07;1.80;;;;;;;14.31;44.64;98456.59;124810;1101;64317;-79
2021/05/06 05:35:41;;;;;;;2.18;1.80;;;;;;;14.38;45.28;98455.06;124847;1101;64422;-79
2021/05/06 05:44:17;;;;;;;2.07;1.50;;;;;;;14.32;44.35;98473.52;124758;1101;64360;-80
2021/05/06 05:56:44;;;;;;;1.80;1.23;;;;;;;14.41;42.94;98453.94;124739;1096;64396;-79
2021/05/06 05:59:10;;;;;;;2.47;1.37;;;;;;;14.33;43.62;98451.95;124727;1097;64342;-79
2021/05/06 06:01:37;;;;;;;1.23;1.13;;;;;;;14.34;43.56;98442.91;124753;1097;64256;-80
2021/05/06 06:04:04;;;;;;;6.43;1.93;;;;;;;14.19;43.23;98449.66;124748;1101;64305;-79
2021/05/06 06:06:31;;;;;;;2.23;1.67;;;;;;;14.03;43.16;98444.84;124751;1097;64329;-80
2021/05/06 06:08:57;;;;;;;2.00;1.30;;;;;;;13.86;43.42;98448.20;124757;1101;64326;-80
2021/05/06 06:11:25;;;;;;;1.97;1.30;;;;;;;13.71;43.79;98445.88;124706;1101;64435;-80
2021/05/06 06:13:53;;;;;;;3.00;1.20;;;;;;;13.73;43.26;98443.08;124801;1101;64361;-81
2021/05/06 06:16:23;;;;;;;2.23;1.20;;;;;;;13.61;42.60;98442.32;124887;1097;64343;-80
2021/05/06 06:18:53;;;;;;;4.77;1.50;;;;;;;13.48;43.17;98449.73;124979;1096;64349;-80
2021/05/06 06:23:47;;;;;;;1.17;1.07;;;;;;;13.48;44.30;98450.61;124793;1095;64275;-79
2021/05/06 06:26:14;;;;;;;1.63;1.20;;;;;;;13.51;44.04;98446.81;124767;1101;64505;-79
2021/05/06 06:28:43;;;;;;;1.27;1.03;;;;;;;13.44;44.15;98446.49;124752;1101;64377;-80
2021/05/06 06:33:42;;;;;;;2.00;1.50;;;;;;;13.51;44.21;98453.02;124835;1097;64336;-80
2021/05/06 06:36:10;;;;;;;2.50;1.53;;;;;;;13.61;44.35;98450.35;124759;1101;64438;-80
2021/05/06 06:38:36;;;;;;;3.13;1.40;;;;;;;13.52;43.74;98459.20;124770;1101;64453;-81
2021/05/06 06:41:05;;;;;;;1.37;1.10;;;;;;;12.65;43.83;98457.67;124789;1101;64332;-80
2021/05/06 06:43:32;;;;;;;1.58;1.10;;;;;;;12.45;44.50;98445.99;124824;1101;64336;-80
2021/05/06 06:46:00;;;;;;;1.93;1.40;;;;;;;12.61;45.19;98455.38;124774;1096;64333;-79
2021/05/06 06:48:27;;;;;;;2.13;1.50;;;;;;;12.70;44.69;98459.97;124783;1101;64428;-85
2021/05/06 06:50:54;;;;;;;1.80;1.17;;;;;;;12.79;44.76;98450.31;124924;1096;64394;-80
2021/05/06 06:53:21;;;;;;;1.87;1.20;;;;;;;12.87;45.20;98454.02;125127;1095;64354;-81
2021/05/06 06:55:48;;;;;;;1.47;1.37;;;;;;;12.86;45.21;98456.84;124970;1101;64429;-83
2021/05/06 06:58:16;;;;;;;1.50;1.40;;;;;;;12.82;44.03;98447.37;124879;1101;64345;-80
2021/05/06 07:00:44;;;;;;;2.93;1.30;;;;;;;12.69;44.66;98447.55;124865;1101;64379;-82
2021/05/06 07:03:12;;;;;;;1.67;1.57;;;;;;;12.55;46.05;98450.55;124851;1096;64341;-81
2021/05/06 07:05:42;;;;;;;2.57;1.03;;;;;;;12.28;45.83;98460.73;124853;1101;64314;-80
2021/05/06 07:08:28;;;;;;;2.23;1.73;;;;;;;12.00;46.08;98450.61;124827;1101;64357;-79
2021/05/06 07:10:58;;;;;;;2.03;1.50;;;;;;;11.84;47.17;98453.65;124792;1101;64431;-80
2021/05/06 07:13:27;;;;;;;2.60;1.30;;;;;;;11.74;47.12;98448.23;124767;1102;64413;-80
2021/05/06 07:15:56;;;;;;;1.93;1.43;;;;;;;11.61;47.76;98440.34;124825;1101;64461;-79
2021/05/06 07:18:23;;;;;;;;;;;;;;;11.52;47.84;98461.58;124840;1101;64243;-79
2021/05/06 07:20:50;;;;;;;1.97;1.50;;;;;;;11.40;47.73;98448.24;124785;1102;64429;-80
2021/05/06 07:23:20;;;;;;;2.90;1.37;;;;;;;11.38;47.87;98447.51;124815;1097;64402;-79
2021/05/06 07:25:48;;;;;;;2.28;1.58;;;;;;;11.37;47.86;98459.16;124817;1096;64326;-79
2021/05/06 07:28:28;;;;;;;3.10;1.40;;;;;;;11.43;47.44;98466.67;124859;1101;64474;-80
2021/05/06 07:30:55;;;;;;;;;;;;;;;11.52;47.75;98469.58;124821;1101;64307;-80
2021/05/06 07:33:22;;;;;;;2.13;1.60;;;;;;;11.59;47.92;98462.79;124773;1102;64332;-80
2021/05/06 07:35:49;;;;;;;3.17;1.37;;;;;;;11.72;47.71;98452.83;124764;1097;64428;-79
2021/05/06 07:38:16;;;;;;;1.83;1.50;;;;;;;11.88;47.45;98459.64;124815;1097;64419;-81
2021/05/06 07:40:42;;;;;;;2.60;1.37;;;;;;;11.96;46.63;98463.38;124857;1097;64282;-79
2021/05/06 07:43:10;;;;;;;1.63;1.10;;;;;;;11.96;47.02;98462.53;124765;1096;64310;-80
2021/05/06 07:45:37;;;;;;;2.07;1.50;;;;;;;12.20;47.54;98449.84;124768;1097;64333;-79
2021/05/06 07:48:05;;;;;;;2.13;1.47;;;;;;;12.35;47.29;98461.09;124799;1101;64290;-80
2021/05/06 07:50:32;;;;;;;2.73;1.63;;;;;;;12.22;46.48;98458.58;124763;1101;64423;-80
2021/05/06 07:53:13;;;;;;;2.50;1.80;;;;;;;12.01;46.44;98460.34;124755;1101;64467;-79
2021/05/06 07:55:40;;;;;;;2.77;2.03;;;;;;;11.89;47.07;98458.66;124740;1101;64303;-81
2021/05/06 07:58:07;;;;;;;2.65;1.60;;;;;;;11.94;47.04;98461.80;124852;1101;64428;-80
2021/05/06 08:00:36;;;;;;;2.93;1.53;;;;;;;12.16;46.80;98456.39;124762;1096;65067;-80
2021/05/06 08:03:06;;;;;;;2.83;1.70;;;;;;;12.28;47.08;98459.89;124843;1096;64339;-80
2021/05/06 08:05:33;;;;;;;2.55;1.33;;;;;;;12.47;46.57;98451.19;124824;1101;64326;-79
2021/05/06 08:08:00;;;;;;;4.65;1.70;;;;;;;12.43;46.48;98457.79;124747;1097;64349;-81
2021/05/06 08:10:27;;;;;;;1.80;1.43;;;;;;;12.20;46.23;98459.68;124780;1101;64331;-80
2021/05/06 08:12:57;;;;;;;2.03;1.40;;;;;;;12.26;46.47;98461.84;124813;1101;64323;-79
2021/05/06 08:15:30;;;;;;;;;;;;;;;12.35;45.90;98445.06;124846;1101;64719;-79
2021/05/06 08:18:18;;;;;;;2.17;1.50;;;;;;;12.51;46.84;98453.48;124878;1101;64371;-81
2021/05/06 08:21:03;;;;;;;2.20;1.73;;;;;;;12.39;46.41;98454.50;124752;1097;64336;-80
2021/05/06 08:23:32;;;;;;;3.27;2.10;;;;;;;12.52;46.69;98452.50;124746;1096;64329;-82
2021/05/06 08:25:58;;;;;;;2.70;1.73;;;;;;;12.74;47.26;98450.69;124921;1101;64323;-80
2021/05/06 08:28:25;;;;;;;3.03;2.00;;;;;;;12.93;47.04;98452.67;124915;1101;64225;-80
2021/05/06 08:30:51;;;;;;;2.57;2.10;;;;;;;13.02;46.83;98441.17;124798;1101;64433;-80
2021/05/06 08:33:18;;;;;;;1.97;1.60;;;;;;;12.92;45.79;98445.61;124833;1095;64422;-81
2021/05/06 08:35:45;;;;;;;1.97;1.60;;;;;;;12.98;46.69;98430.86;124878;1102;64329;-81
2021/05/06 08:38:11;;;;;;;3.65;1.60;;;;;;;13.03;45.62;98436.66;124865;1096;64208;-80
2021/05/06 08:40:38;;;;;;;4.25;2.00;;;;;;;13.02;45.66;98434.98;124862;1101;64416;-80
2021/05/06 08:43:08;;;;;;;2.67;1.57;;;;;;;13.12;46.55;98428.70;124844;1096;64377;-80
2021/05/06 08:45:42;;;;;;;1.80;1.70;;;;;;;13.41;45.86;98417.33;124933;1101;64429;-80
2021/05/06 08:48:11;;;;;;;3.13;1.70;;;;;;;13.66;46.03;98420.50;124845;1097;64323;-80
2021/05/06 08:50:40;;;;;;;2.30;1.70;;;;;;;13.78;45.44;98414.91;124895;1101;64320;-80
2021/05/06 08:53:08;;;;;;;2.03;1.30;;;;;;;13.78;44.26;98414.06;124907;1101;64442;-79
2021/05/06 08:55:35;;;;;;;2.13;1.60;;;;;;;13.68;43.42;98422.06;124761;1101;64434;-79
2021/05/06 08:58:04;;;;;;;1.30;1.20;;;;;;;13.71;44.54;98431.66;124839;1101;64304;-80
2021/05/06 09:00:31;;;;;;;2.07;1.77;;;;;;;13.83;43.77;98428.73;124871;1097;64335;-80
2021/05/06 09:02:58;;;;;;;1.50;1.40;;;;;;;13.87;44.28;98426.61;124816;1097;64333;-79
2021/05/06 09:05:25;;;;;;;2.67;1.63;;;;;;;14.05;44.01;98424.12;124801;1101;64400;-80
2021/05/06 09:07:52;;;;;;;2.87;1.73;;;;;;;14.16;43.78;98418.63;124752;1101;64486;-80
2021/05/06 09:10:39;;;;;;;2.57;1.43;;;;;;;14.31;43.10;98405.67;124748;1097;64256;-80
2021/05/06 09:13:29;;;;;;;2.20;1.50;;;;;;;14.39;42.84;98397.77;124744;1101;64246;-80
2021/05/06 09:15:57;;;;;;;3.07;1.17;;;;;;;14.21;41.62;98411.02;124825;1101;64300;-80
2021/05/06 09:18:38;;;;;;;2.45;1.30;;;;;;;14.22;41.47;98411.88;124831;1096;64393;-79
2021/05/06 09:21:07;;;;;;;3.87;1.37;;;;;;;14.50;41.87;98416.38;124821;1101;64403;-80
2021/05/06 09:23:35;;;;;;;2.78;1.58;;;;;;;14.71;41.27;98416.25;124803;1101;64410;-79
2021/05/06 09:26:04;;;;;;;2.73;1.33;;;;;;;14.88;41.01;98416.53;124757;1096;64333;-80
2021/05/06 09:28:33;;;;;;;2.47;0.97;;;;;;;15.03;40.95;98430.32;124803;1101;64875;-80
2021/05/06 09:31:01;;;;;;;4.93;1.90;;;;;;;15.10;40.54;98409.97;124834;1101;64355;-79
2021/05/06 09:33:37;;;;;;;3.63;1.83;;;;;;;15.26;40.24;98415.56;124787;1096;64326;-79
2021/05/06 09:36:13;;;;;;;3.40;1.47;;;;;;;15.04;40.52;98408.72;124815;1097;64348;-82
2021/05/06 09:39:00;;;;;;;1.77;1.53;;;;;;;15.04;41.33;98402.52;124943;1101;64397;-81
2021/05/06 09:41:32;;;;;;;3.17;1.60;;;;;;;14.98;41.28;98403.08;125009;1097;64329;-80
2021/05/06 09:44:10;;;;;;;2.73;1.20;;;;;;;14.98;39.24;98403.95;124952;1094;64339;-80
2021/05/06 09:46:42;;;;;;;4.87;1.60;;;;;;;15.05;40.81;98394.30;124881;1096;64380;-82
2021/05/06 09:49:16;;;;;;;2.97;1.40;;;;;;;15.39;40.71;98406.34;124863;1096;64339;-82
2021/05/06 09:51:57;;;;;;;7.83;2.73;;;;;;;15.66;38.72;98411.72;124801;1101;64382;-81
2021/05/06 09:54:29;;;;;;;1.27;1.10;;;;;;;15.71;38.74;98395.19;124755;1101;64342;-79
2021/05/06 09:56:59;;;;;;;1.53;1.10;;;;;;;15.74;38.03;98401.09;124813;1096;64362;-79
2021/05/06 09:59:33;;;;;;;2.07;1.30;;;;;;;15.84;38.64;98405.59;124824;1101;64474;-80
2021/05/06 10:02:14;;;;;;;3.80;1.50;;;;;;;15.75;38.57;98402.81;124835;1101;64308;-81
2021/05/06 10:04:48;;;;;;;1.23;0.97;;;;;;;15.53;37.15;98409.41;124780;1101;64362;-80
2021/05/06 10:07:15;;;;;;;3.77;1.47;;;;;;;15.21;37.71;98414.31;124794;1101;64323;-80
2021/05/06 10:10:02;;;;;;;1.30;1.05;;;;;;;15.05;38.13;98414.92;124858;1101;64358;-79
2021/05/06 10:12:29;;;;;;;1.50;1.20;;;;;;;14.95;37.89;98403.37;124777;1097;64271;-80
2021/05/06 10:14:57;;;;;;;2.33;1.30;;;;;;;14.87;38.90;98415.66;124787;1096;64334;-79
2021/05/06 10:17:29;;;;;;;2.07;1.53;;;;;;;14.84;39.06;98426.69;124875;1101;64320;-80
2021/05/06 10:19:58;;;;;;;3.03;1.20;;;;;;;14.73;39.22;98434.06;124858;1101;64329;-80
2021/05/06 10:22:27;;;;;;;1.65;1.30;;;;;;;14.57;38.96;98432.80;124805;1101;64920;-81
2021/05/06 10:24:55;;;;;;;5.03;1.30;;;;;;;14.39;39.68;98435.30;124892;1095;64413;-80
2021/05/06 10:27:26;;;;;;;2.63;1.60;;;;;;;14.19;39.33;98441.62;124851;1096;64355;-79
2021/05/06 10:29:57;;;;;;;1.33;1.20;;;;;;;14.01;39.81;98441.47;124827;1097;64331;-79
2021/05/06 10:32:30;;;;;;;2.03;1.70;;;;;;;14.11;40.18;98430.75;124888;1097;64335;-79
2021/05/06 10:35:03;;;;;;;1.33;1.23;;;;;;;14.32;40.66;98431.47;124818;1101;64396;-81
2021/05/06 10:37:35;;;;;;;2.03;1.20;;;;;;;14.42;40.34;98434.17;124775;1101;64383;-80
2021/05/06 10:40:23;;;;;;;2.00;1.07;;;;;;;14.58;40.11;98423.75;124802;1101;64309;-80
2021/05/06 10:42:51;;;;;;;2.15;1.35;;;;;;;14.82;39.86;98428.66;124785;1096;64274;-80
2021/05/06 10:45:18;;;;;;;1.20;1.00;;;;;;;14.99;38.46;98434.30;124873;1101;64431;-81
2021/05/06 10:47:49;;;;;;;2.20;1.20;;;;;;;15.28;38.94;98428.86;124795;1101;64348;-80
2021/05/06 10:50:23;;;;;;;2.43;1.30;;;;;;;15.57;39.10;98416.15;124825;1095;64330;-80
2021/05/06 10:52:53;;;;;;;1.93;1.00;;;;;;;15.87;38.95;98406.12;124825;1101;64333;-80
2021/05/06 10:55:40;;;;;;;;;;;;;;;15.91;36.19;98415.59;124850;1101;64300;-81
2021/05/06 10:58:22;;;;;;;1.67;1.13;;;;;;;15.86;37.96;98409.81;124819;1101;64300;-81
2021/05/06 11:01:16;;;;;;;1.53;1.43;;;;;;;15.76;37.53;98401.80;124727;1101;64318;-81
2021/05/06 11:03:43;;;;;;;1.77;1.20;;;;;;;15.87;37.97;98402.59;124797;1101;64447;-80
2021/05/06 11:06:31;;;;;;;;;;;;;;;15.74;37.13;98398.41;124570;1101;64760;-80
2021/05/06 11:08:58;;;;;;;1.30;1.20;;;;;;;15.59;36.38;98391.84;124759;1101;64241;-79
2021/05/06 11:11:25;;;;;;;1.97;1.00;;;;;;;15.54;37.54;98386.07;124802;1097;64330;-79
2021/05/06 11:14:10;;;;;;;1.97;1.20;;;;;;;15.52;37.39;98388.05;124760;1101;64430;-80
2021/05/06 11:16:40;;;;;;;1.63;1.50;;;;;;;15.41;37.40;98393.63;124755;1101;64480;-81
2021/05/06 11:19:09;;;;;;;1.37;1.10;;;;;;;15.23;37.78;98386.34;124810;1101;64279;-81
2021/05/06 11:21:37;;;;;;;1.27;1.17;;;;;;;15.22;38.27;98384.66;124839;1101;64345;-80
2021/05/06 11:24:18;;;;;;;1.67;1.07;;;;;;;15.21;38.56;98382.11;124813;1101;64330;-80
2021/05/06 11:27:08;;;;;;;3.03;1.20;;;;;;;15.20;37.71;98381.27;124865;1101;64344;-80
2021/05/06 11:29:37;;;;;;;1.80;1.10;;;;;;;15.30;38.69;98382.08;124848;1101;64850;-82
2021/05/06 11:32:06;;;;;;;1.38;1.05;;;;;;;15.61;38.39;98379.08;124974;1101;64278;-81
2021/05/06 11:34:39;;;;;;;1.40;1.30;;;;;;;15.81;37.88;98377.17;124926;1101;64327;-80
2021/05/06 11:37:16;;;;;;;1.30;1.20;;;;;;;15.96;37.70;98359.55;124955;1095;64311;-80
2021/05/06 11:39:54;;;;;;;2.47;1.53;;;;;;;16.08;38.23;98362.00;124846;1101;64456;-80
2021/05/06 11:42:23;;;;;;;2.70;1.70;;;;;;;16.35;38.55;98364.62;124782;1097;64323;-80
2021/05/06 11:45:15;;;;;;;1.70;1.60;;;;;;;16.59;37.75;98369.35;124789;1097;64352;-80
2021/05/06 11:47:42;;;;;;;5.03;1.37;;;;;;;16.33;36.97;98360.39;124760;1097;64329;-80
2021/05/06 11:50:24;;;;;;;2.30;1.67;;;;;;;16.08;36.31;98353.94;124789;1101;64303;-80
2021/05/06 11:52:54;;;;;;;2.05;1.10;;;;;;;16.09;37.49;98358.30;124817;1097;64358;-80
2021/05/06 11:55:38;;;;;;;3.10;1.30;;;;;;;15.99;37.32;98350.33;124776;1096;64336;-80
2021/05/06 11:58:05;;;;;;;2.33;1.23;;;;;;;16.10;37.44;98349.25;124798;1101;64320;-80
2021/05/06 12:00:34;;;;;;;1.80;1.25;;;;;;;16.22;37.32;98339.97;124779;1095;64422;-79
2021/05/06 12:03:06;;;;;;;1.97;1.50;;;;;;;16.24;37.56;98332.56;124778;1101;64234;-79
2021/05/06 12:05:59;;;;;;;1.85;1.30;;;;;;;16.19;38.04;98334.88;124892;1101;64355;-80
2021/05/06 12:08:47;;;;;;;1.63;1.27;;;;;;;16.20;37.96;98333.89;124780;1101;64460;-81
2021/05/06 12:11:16;;;;;;;2.20;1.70;;;;;;;16.18;37.50;98334.03;124788;1101;64330;-79
2021/05/06 12:13:44;;;;;;;1.58;1.30;;;;;;;16.24;37.16;98333.44;124816;1101;64334;-80
2021/05/06 12:16:25;;;;;;;2.40;1.80;;;;;;;16.30;37.74;98339.16;124788;1101;64363;-79
2021/05/06 12:18:58;;;;;;;1.70;1.47;;;;;;;16.51;37.24;98333.45;124765;1101;64382;-80
2021/05/06 12:21:35;;;;;;;2.27;1.50;;;;;;;16.63;37.48;98327.66;124764;1096;64323;-80
2021/05/06 12:24:05;;;;;;;2.17;1.07;;;;;;;16.72;37.66;98327.72;124947;1101;64339;-80
2021/05/06 12:26:33;;;;;;;2.78;1.30;;;;;;;16.99;37.69;98326.77;125267;1101;64352;-82
2021/05/06 12:29:00;;;;;;;1.37;1.17;;;;;;;17.20;36.99;98321.81;125628;1095;64359;-81
2021/05/06 12:31:27;;;;;;;2.13;1.30;;;;;;;17.21;35.00;98318.11;124832;1097;64453;-83
2021/05/06 12:33:54;;;;;;;1.57;1.20;;;;;;;16.93;35.67;98327.38;124959;1101;64333;-80
2021/05/06 12:36:21;;;;;;;4.10;1.00;;;;;;;16.58;36.39;98332.67;124816;1096;64304;-82
2021/05/06 12:38:49;;;;;;;1.80;1.10;;;;;;;16.16;35.60;98333.34;124789;1096;64374;-81
2021/05/06 12:41:18;;;;;;;1.60;1.20;;;;;;;15.70;35.42;98320.98;124790;1097;64415;-81
2021/05/06 12:43:52;;;;;;;1.10;1.00;;;;;;;15.40;35.11;98322.11;124956;1095;64304;-79
2021/05/06 12:46:25;;;;;;;4.53;0.90;;;;;;;15.14;36.72;98326.34;124800;1101;64350;-80
2021/05/06 12:48:55;;;;;;;3.33;0.97;;;;;;;15.35;36.83;98326.09;124790;1101;64257;-80
2021/05/06 12:51:29;;;;;;;3.25;1.55;;;;;;;15.71;37.03;98318.13;124795;1096;64253;-80
2021/05/06 12:54:11;;;;;;;1.70;1.00;;;;;;;16.09;36.76;98321.53;124790;1101;64268;-80
2021/05/06 12:56:41;;;;;;;2.83;1.33;;;;;;;16.31;35.21;98312.13;124722;1101;64381;-79
2021/05/06 12:59:29;;;;;;;2.35;1.30;;;;;;;16.47;34.94;98303.34;124820;1101;64478;-80
2021/05/06 13:02:11;;;;;;;2.27;1.63;;;;;;;16.82;36.44;98309.66;124790;1096;64317;-80
2021/05/06 13:04:46;;;;;;;2.70;1.30;;;;;;;16.76;35.52;98310.27;124802;1101;64339;-80
2021/05/06 13:07:15;;;;;;;1.57;1.20;;;;;;;16.89;35.63;98308.02;124781;1101;64315;-79
2021/05/06 13:09:47;;;;;;;1.30;1.20;;;;;;;16.85;35.16;98296.74;124769;1095;64732;-79
2021/05/06 13:12:23;;;;;;;2.00;1.20;;;;;;;16.71;35.37;98299.97;124826;1101;64486;-80
2021/05/06 13:14:52;;;;;;;1.70;1.20;;;;;;;16.75;34.30;98295.14;124910;1101;64426;-81
2021/05/06 13:17:28;;;;;;;2.73;2.17;;;;;;;16.81;36.66;98298.05;124884;1101;64285;-80
2021/05/06 13:19:57;;;;;;;1.90;1.13;;;;;;;16.78;35.19;98301.06;124809;1101;64418;-80
2021/05/06 13:22:25;;;;;;;2.40;1.20;;;;;;;16.51;35.58;98296.66;124819;1097;64374;-80
2021/05/06 13:24:53;;;;;;;1.20;1.03;;;;;;;16.20;35.77;98305.16;124925;1101;64467;-80
2021/05/06 13:27:27;;;;;;;2.43;1.03;;;;;;;15.94;36.75;98293.50;124893;1096;64326;-82
2021/05/06 13:29:59;;;;;;;1.93;1.20;;;;;;;16.16;37.21;98297.55;124896;1097;64259;-81
2021/05/06 13:32:34;;;;;;;3.20;1.50;;;;;;;16.37;36.55;98281.92;124984;1101;64256;-86
2021/05/06 13:35:02;;;;;;;1.33;1.20;;;;;;;16.56;37.46;98286.28;124964;1101;64384;-81
2021/05/06 13:37:38;;;;;;;2.47;2.00;;;;;;;16.68;37.08;98276.92;124929;1101;64467;-82
2021/05/06 13:40:06;;;;;;;1.90;1.20;;;;;;;16.59;36.91;98272.50;124945;1096;64360;-81
2021/05/06 13:42:33;;;;;;;10.07;2.70;;;;;;;16.37;36.58;98265.78;124876;1096;64358;-81
2021/05/06 13:45:00;;;;;;;20.27;4.57;;;;;;;16.12;37.15;98272.00;124946;1101;64364;-81
2021/05/06 13:47:27;;;;;;;3.97;1.30;;;;;;;16.09;37.48;98273.16;124915;1101;64243;-82
2021/05/06 13:49:54;;;;;;;1.17;0.90;;;;;;;16.08;36.75;98259.85;124904;1101;64480;-80
2021/05/06 13:52:24;;;;;;;2.57;1.20;;;;;;;16.14;37.15;98267.28;124808;1101;64342;-79
2021/05/06 13:54:51;;;;;;;;;;;;;;;16.37;37.53;98268.47;124887;1101;64680;-79
2021/05/06 13:57:18;;;;;;;1.80;1.20;;;;;;;16.67;37.11;98266.34;124828;1101;64391;-79
2021/05/06 13:59:46;;;;;;;2.77;1.40;;;;;;;16.74;36.70;98261.14;124738;1101;64336;-80
2021/05/06 14:02:18;;;;;;;3.33;1.63;;;;;;;16.67;37.21;98277.09;124761;1101;64425;-81
2021/05/06 14:04:47;;;;;;;2.50;0.90;;;;;;;16.63;36.62;98273.86;124727;1101;64333;-83
2021/05/06 14:07:13;;;;;;;1.53;1.20;;;;;;;16.54;35.56;98264.06;124878;1101;64320;-81
2021/05/06 14:09:41;;;;;;;1.60;1.17;;;;;;;16.36;36.38;98261.42;124766;1096;64246;-80
2021/05/06 14:12:08;;;;;;;1.57;1.00;;;;;;;16.13;35.65;98254.86;124734;1101;64329;-80
2021/05/06 14:14:35;;;;;;;3.43;1.20;;;;;;;15.96;36.10;98248.52;124847;1096;64367;-79
2021/05/06 14:17:02;;;;;;;3.37;1.47;;;;;;;15.83;36.17;98246.22;124803;1097;64326;-80
2021/05/06 14:19:28;;;;;;;1.85;1.35;;;;;;;15.67;36.99;98240.67;124817;1095;64310;-80
2021/05/06 14:21:56;;;;;;;1.30;1.20;;;;;;;15.65;37.34;98253.41;124857;1101;64432;-79
2021/05/06 14:24:24;;;;;;;1.65;1.15;;;;;;;15.64;37.47;98241.82;124814;1101;64234;-80
2021/05/06 14:26:51;;;;;;;2.20;1.00;;;;;;;15.66;37.94;98237.11;124790;1101;64470;-80
2021/05/06 14:29:19;;;;;;;1.83;1.43;;;;;;;15.72;37.95;98235.72;124840;1101;64346;-80
2021/05/06 14:31:46;;;;;;;2.57;1.27;;;;;;;15.76;37.11;98245.14;124858;1096;64249;-80
2021/05/06 14:34:13;;;;;;;2.15;1.20;;;;;;;15.73;37.63;98232.02;124813;1095;64419;-80
2021/05/06 14:36:40;;;;;;;4.60;1.70;;;;;;;15.73;37.65;98230.17;124833;1097;64460;-80
2021/05/06 14:39:08;;;;;;;2.80;1.30;;;;;;;15.82;38.42;98230.23;124865;1101;64534;-80
2021/05/06 14:41:35;;;;;;;1.60;1.20;;;;;;;15.89;38.12;98221.41;124862;1101;64327;-79
2021/05/06 14:44:02;;;;;;;2.13;1.53;;;;;;;15.85;38.27;98217.36;124925;1101;64262;-81
2021/05/06 14:46:29;;;;;;;2.33;1.33;;;;;;;15.83;37.51;98221.20;124815;1097;64339;-81
2021/05/06 14:48:55;;;;;;;2.17;1.37;;;;;;;15.81;37.46;98221.34;124717;1101;64441;-80
2021/05/06 14:51:22;;;;;;;2.65;1.60;;;;;;;15.94;37.45;98205.66;124806;1101;64332;-80
2021/05/06 14:53:49;;;;;;;1.43;1.20;;;;;;;16.01;37.63;98208.58;124862;1101;64326;-79
2021/05/06 14:56:15;;;;;;;5.93;2.10;;;;;;;16.02;37.90;98213.78;124768;1101;64332;-81
2021/05/06 14:58:42;;;;;;;3.00;1.57;;;;;;;16.12;37.56;98207.48;124799;1097;64374;-81
2021/05/06 15:01:09;;;;;;;4.20;1.70;;;;;;;16.10;37.44;98215.69;124738;1097;64265;-79
2021/05/06 15:03:36;;;;;;;2.50;1.60;;;;;;;15.92;37.14;98199.59;124802;1097;64447;-79
2021/05/06 15:06:03;;;;;;;2.73;1.67;;;;;;;15.78;37.83;98203.69;124761;1101;64334;-79
2021/05/06 15:08:29;;;;;;;1.90;1.40;;;;;;;15.63;37.91;98201.67;124774;1102;64361;-83
2021/05/06 15:10:56;;;;;;;2.23;1.70;;;;;;;15.51;37.69;98196.54;124756;1101;64329;-82
2021/05/06 15:13:23;;;;;;;2.17;1.50;;;;;;;15.47;38.14;98194.30;124945;1101;64403;-82
2021/05/06 15:15:50;;;;;;;2.40;1.80;;;;;;;15.46;38.34;98189.95;124911;1101;64419;-81
2021/05/06 15:18:16;;;;;;;1.90;1.13;;;;;;;15.54;38.49;98174.75;124913;1096;64686;-80
2021/05/06 15:20:43;;;;;;;4.20;1.83;;;;;;;15.63;38.77;98177.50;125002;1097;64300;-80
2021/05/06 15:23:10;;;;;;;3.00;1.97;;;;;;;15.65;38.68;98173.66;124816;1096;64328;-82
2021/05/06 15:25:36;;;;;;;4.43;2.33;;;;;;;15.72;38.69;98172.08;124827;1101;64250;-82
2021/05/06 15:28:03;;;;;;;3.45;2.30;;;;;;;15.80;39.06;98173.99;124816;1101;64361;-81